createdAt,value
2019-05-03T00:02:27.978Z,94741.98
2019-05-03T00:05:26.930Z,94744.72
2019-05-03T00:08:08.975Z,94738.70
2019-05-03T00:10:39.575Z,94738.28
2019-05-03T00:13:09.396Z,94738.39
2019-05-03T00:15:57.634Z,94734.72
2019-05-03T00:18:27.162Z,94728.78
2019-05-03T00:20:56.347Z,94729.58
2019-05-03T00:23:25.806Z,94727.34
2019-05-03T00:25:55.034Z,94723.99
2019-05-03T00:28:24.514Z,94724.38
2019-05-03T00:30:53.738Z,94724.56
2019-05-03T00:33:23.184Z,94720.28
2019-05-03T00:36:22.344Z,94728.91
2019-05-03T00:38:53.751Z,94725.70
2019-05-03T00:41:22.977Z,94728.55
2019-05-03T00:43:52.153Z,94724.80
2019-05-03T00:46:22.002Z,94722.44
2019-05-03T00:48:52.446Z,94717.40
2019-05-03T00:51:22.580Z,94718.33
2019-05-03T00:53:53.105Z,94715.92
2019-05-03T00:56:22.448Z,94715.92
2019-05-03T00:58:57.930Z,94719.67
2019-05-03T01:01:27.197Z,94721.14
2019-05-03T01:03:56.390Z,94718.59
2019-05-03T01:06:25.907Z,94716.40
2019-05-03T01:08:55.077Z,94711.90
2019-05-03T01:11:24.259Z,94704.05
2019-05-03T01:13:53.772Z,94705.10
2019-05-03T01:16:23.864Z,94711.91
2019-05-03T01:18:53.094Z,94718.02
2019-05-03T01:21:22.768Z,94703.05
2019-05-03T01:23:53.172Z,94704.16
2019-05-03T01:26:22.865Z,94696.85
2019-05-03T01:28:52.512Z,94696.59
2019-05-03T01:31:22.937Z,94705.92
2019-05-03T01:33:52.248Z,94698.12
2019-05-03T01:36:22.796Z,94700.38
2019-05-03T01:38:52.996Z,94701.10
2019-05-03T01:41:22.450Z,94704.05
2019-05-03T01:43:52.650Z,94709.70
2019-05-03T01:46:22.817Z,94712.22
2019-05-03T01:49:19.983Z,94709.78
2019-05-03T01:52:12.793Z,94703.91
2019-05-03T01:54:42.682Z,94694.77
2019-05-03T01:57:11.937Z,94701.75
2019-05-03T01:59:42.616Z,94704.56
2019-05-03T02:02:22.931Z,94698.19
2019-05-03T02:05:11.995Z,94690.34
2019-05-03T02:07:42.274Z,94699.48
2019-05-03T02:10:11.951Z,94703.62
2019-05-03T02:12:41.792Z,94700.38
2019-05-03T02:15:11.825Z,94698.50
2019-05-03T02:17:42.703Z,94698.00
2019-05-03T02:20:12.673Z,94700.16
2019-05-03T02:22:42.767Z,94696.39
2019-05-03T02:25:12.536Z,94695.09
2019-05-03T02:27:42.440Z,94695.91
2019-05-03T02:30:14.082Z,94694.98
2019-05-03T02:32:43.981Z,94699.81
2019-05-03T02:35:14.181Z,94697.65
2019-05-03T02:37:45.570Z,94704.13
2019-05-03T02:40:14.910Z,94696.97
2019-05-03T02:42:46.791Z,94703.62
2019-05-03T02:45:25.703Z,94705.13
2019-05-03T02:48:05.976Z,94704.23
2019-05-03T02:50:36.128Z,94701.39
2019-05-03T02:53:05.912Z,94693.69
2019-05-03T02:55:36.392Z,94699.27
2019-05-03T02:58:05.953Z,94695.23
2019-05-03T03:00:57.550Z,94692.22
2019-05-03T03:03:27.707Z,94693.41
2019-05-03T03:05:58.607Z,94694.73
2019-05-03T03:08:32.816Z,94698.19
2019-05-03T03:11:01.327Z,94696.75
2019-05-03T03:13:32.446Z,94701.14
2019-05-03T03:16:07.096Z,94702.08
2019-05-03T03:18:37.678Z,94697.83
2019-05-03T03:21:10.823Z,94693.33
2019-05-03T03:24:06.103Z,94696.39
2019-05-03T03:26:42.734Z,94699.34
2019-05-03T03:29:10.887Z,94695.02
2019-05-03T03:32:10.172Z,94698.91
2019-05-03T03:34:53.294Z,94696.50
2019-05-03T03:37:15.739Z,94700.89
2019-05-03T03:39:45.874Z,94702.40
2019-05-03T03:42:16.252Z,94700.53
2019-05-03T03:44:45.829Z,94698.34
2019-05-03T03:47:16.743Z,94701.22
2019-05-03T03:49:48.062Z,94698.27
2019-05-03T03:52:19.637Z,94695.73
2019-05-03T03:54:50.076Z,94704.20
2019-05-03T03:57:21.016Z,94709.34
2019-05-03T03:59:50.318Z,94703.66
2019-05-03T04:02:19.804Z,94712.41
2019-05-03T04:04:49.696Z,94710.27
2019-05-03T04:07:19.145Z,94721.89
2019-05-03T04:09:48.409Z,94712.25
2019-05-03T04:12:18.100Z,94721.75
2019-05-03T04:15:05.635Z,94726.58
2019-05-03T04:17:57.201Z,94726.88
2019-05-03T04:20:29.933Z,94727.27
2019-05-03T04:22:59.678Z,94727.47
2019-05-03T04:25:29.417Z,94735.34
2019-05-03T04:27:58.591Z,94745.23
2019-05-03T04:30:27.770Z,94736.48
2019-05-03T04:32:57.011Z,94733.19
2019-05-03T04:35:26.766Z,94737.30
2019-05-03T04:37:56.327Z,94738.84
2019-05-03T04:40:26.210Z,94744.41
2019-05-03T04:42:56.093Z,94736.39
2019-05-03T04:45:25.849Z,94736.61
2019-05-03T04:47:56.047Z,94747.19
2019-05-03T04:50:25.918Z,94747.19
2019-05-03T04:52:56.764Z,94746.50
2019-05-03T04:55:26.943Z,94745.45
2019-05-03T04:57:56.489Z,94750.55
2019-05-03T05:00:26.083Z,94746.02
2019-05-03T05:02:55.498Z,94748.64
2019-05-03T05:05:26.145Z,94754.26
2019-05-03T05:07:56.177Z,94755.41
2019-05-03T05:10:26.304Z,94755.98
2019-05-03T05:12:55.708Z,94765.31
2019-05-03T05:15:26.420Z,94767.08
2019-05-03T05:18:10.914Z,94759.44
2019-05-03T05:20:50.483Z,94768.43
2019-05-03T05:23:19.746Z,94766.54
2019-05-03T05:25:55.047Z,94772.16
2019-05-03T05:28:35.540Z,94773.92
2019-05-03T05:31:04.849Z,94769.27
2019-05-03T05:33:35.342Z,94770.17
2019-05-03T05:36:04.876Z,94772.48
2019-05-03T05:38:34.736Z,94775.03
2019-05-03T05:41:05.339Z,94777.14
2019-05-03T05:43:35.727Z,94782.06
2019-05-03T05:46:05.397Z,94778.86
2019-05-03T05:48:45.128Z,94778.25
2019-05-03T05:51:15.948Z,94785.41
2019-05-03T05:53:45.017Z,94789.00
2019-05-03T05:56:24.935Z,94792.20
2019-05-03T05:58:57.171Z,94789.08
2019-05-03T06:01:29.828Z,94785.23
2019-05-03T06:03:59.009Z,94798.55
2019-05-03T06:06:35.404Z,94798.19
2019-05-03T06:09:11.192Z,94802.98
2019-05-03T06:11:45.335Z,94800.78
2019-05-03T06:14:24.570Z,94807.62
2019-05-03T06:17:01.538Z,94810.36
2019-05-03T06:20:01.664Z,94802.44
2019-05-03T06:22:44.804Z,94810.63
2019-05-03T06:25:26.206Z,94818.59
2019-05-03T06:27:54.960Z,94817.41
2019-05-03T06:30:46.953Z,94814.38
2019-05-03T06:33:16.175Z,94816.61
2019-05-03T06:35:45.643Z,94814.23
2019-05-03T06:38:15.303Z,94817.55
2019-05-03T06:40:44.810Z,94819.81
2019-05-03T06:43:15.731Z,94814.19
2019-05-03T06:45:46.647Z,94805.17
2019-05-03T06:48:17.709Z,94816.31
2019-05-03T06:50:47.548Z,94817.33
2019-05-03T06:53:19.004Z,94821.11
2019-05-03T06:55:48.581Z,94814.30
2019-05-03T06:58:30.543Z,94817.83
2019-05-03T07:01:05.230Z,94812.23
2019-05-03T07:03:44.644Z,94808.64
2019-05-03T07:06:40.669Z,94816.28
2019-05-03T07:09:24.937Z,94818.19
2019-05-03T07:11:55.511Z,94819.80
2019-05-03T07:14:26.604Z,94819.41
2019-05-03T07:16:55.827Z,94821.54
2019-05-03T07:19:25.155Z,94825.17
2019-05-03T07:21:54.677Z,94819.99
2019-05-03T07:24:25.017Z,94820.86
2019-05-03T07:26:55.113Z,94821.68
2019-05-03T07:29:25.509Z,94828.63
2019-05-03T07:31:55.086Z,94828.17
2019-05-03T07:34:24.871Z,94827.73
2019-05-03T07:36:55.539Z,94829.65
2019-05-03T07:39:24.752Z,94833.69
2019-05-03T07:41:55.103Z,94832.17
2019-05-03T07:44:25.555Z,94833.25
2019-05-03T07:46:55.464Z,94825.06
2019-05-03T07:49:25.036Z,94834.00
2019-05-03T07:51:55.328Z,94830.67
2019-05-03T07:54:25.304Z,94831.97
2019-05-03T07:57:05.331Z,94833.08
2019-05-03T07:59:35.533Z,94836.74
2019-05-03T08:02:05.638Z,94835.61
2019-05-03T08:04:35.801Z,94842.48
2019-05-03T08:07:05.346Z,94837.98
2019-05-03T08:09:35.025Z,94832.66
2019-05-03T08:12:05.071Z,94824.67
2019-05-03T08:14:35.642Z,94831.25
2019-05-03T08:17:05.274Z,94826.50
2019-05-03T08:19:35.807Z,94826.45
2019-05-03T08:22:05.456Z,94835.28
2019-05-03T08:24:34.799Z,94820.37
2019-05-03T08:27:05.032Z,94824.48
2019-05-03T08:29:35.181Z,94829.98
2019-05-03T08:32:24.554Z,94831.85
2019-05-03T08:35:12.125Z,94832.59
2019-05-03T08:37:46.002Z,94830.88
2019-05-03T08:40:15.680Z,94832.66
2019-05-03T08:42:44.932Z,94832.09
2019-05-03T08:45:14.800Z,94831.41
2019-05-03T08:47:45.081Z,94829.23
2019-05-03T08:50:20.931Z,94828.08
2019-05-03T08:52:45.781Z,94830.30
2019-05-03T08:55:15.903Z,94833.52
2019-05-03T08:57:45.328Z,94833.56
2019-05-03T09:00:17.026Z,94830.34
2019-05-03T09:02:46.512Z,94828.31
2019-05-03T09:05:18.548Z,94837.78
2019-05-03T09:07:46.884Z,94834.47
2019-05-03T09:10:35.354Z,94836.49
2019-05-03T09:13:06.761Z,94817.27
2019-05-03T09:15:36.200Z,94835.81
2019-05-03T09:18:06.180Z,94828.34
2019-05-03T09:20:35.765Z,94837.38
2019-05-03T09:23:05.608Z,94845.25
2019-05-03T09:25:38.762Z,94847.77
2019-05-03T09:28:07.964Z,94850.70
2019-05-03T09:30:37.421Z,94861.67
2019-05-03T09:33:09.199Z,94858.19
2019-05-03T09:35:38.671Z,94858.15
2019-05-03T09:38:07.851Z,94865.03
2019-05-03T09:40:37.104Z,94861.30
2019-05-03T09:43:06.309Z,94859.08
2019-05-03T09:45:35.516Z,94865.56
2019-05-03T09:48:05.646Z,94862.25
2019-05-03T09:50:35.869Z,94865.28
2019-05-03T09:53:05.648Z,94875.95
2019-05-03T09:55:38.517Z,94877.34
2019-05-03T09:58:07.775Z,94878.93
2019-05-03T10:00:37.046Z,94882.28
2019-05-03T10:03:06.318Z,94885.84
2019-05-03T10:05:35.851Z,94881.71
2019-05-03T10:08:05.423Z,94873.96
2019-05-03T10:10:52.595Z,94880.73
2019-05-03T10:13:23.886Z,94874.94
2019-05-03T10:15:54.923Z,94875.33
2019-05-03T10:18:25.508Z,94874.20
2019-05-03T10:20:56.127Z,94874.13
2019-05-03T10:23:41.291Z,94876.47
2019-05-03T10:26:10.718Z,94873.19
2019-05-03T10:28:39.903Z,94872.30
2019-05-03T10:31:09.137Z,94874.98
2019-05-03T10:33:45.902Z,94869.92
2019-05-03T10:36:15.597Z,94872.64
2019-05-03T10:38:45.949Z,94870.38
2019-05-03T10:41:15.409Z,94876.27
2019-05-03T10:43:45.330Z,94869.84
2019-05-03T10:46:15.975Z,94875.52
2019-05-03T10:48:45.473Z,94875.16
2019-05-03T10:51:15.762Z,94865.66
2019-05-03T10:53:47.660Z,94869.73
2019-05-03T10:56:24.554Z,94873.48
2019-05-03T10:59:01.493Z,94875.14
2019-05-03T11:01:48.146Z,94875.98
2019-05-03T11:04:17.648Z,94875.39
2019-05-03T11:06:46.938Z,94870.74
2019-05-03T11:09:16.112Z,94869.91
2019-05-03T11:11:45.687Z,94866.47
2019-05-03T11:14:15.059Z,94865.16
2019-05-03T11:16:46.077Z,94868.65
2019-05-03T11:19:15.254Z,94868.90
2019-05-03T11:21:45.557Z,94864.20
2019-05-03T11:24:15.028Z,94865.42
2019-05-03T11:26:46.033Z,94864.70
2019-05-03T11:29:15.964Z,94859.49
2019-05-03T11:31:59.419Z,94867.11
2019-05-03T11:34:35.490Z,94860.20
2019-05-03T11:37:41.697Z,94857.23
2019-05-03T11:40:11.793Z,94860.28
2019-05-03T11:42:40.975Z,94866.61
2019-05-03T11:45:10.588Z,94868.34
2019-05-03T11:47:39.769Z,94863.92
2019-05-03T11:50:08.997Z,94860.73
2019-05-03T11:52:38.472Z,94859.12
2019-05-03T11:55:11.286Z,94859.65
2019-05-03T11:57:39.094Z,94865.84
2019-05-03T12:00:10.504Z,94861.63
2019-05-03T12:03:05.033Z,94857.47
2019-05-03T12:05:34.460Z,94859.01
2019-05-03T12:08:05.411Z,94865.72
2019-05-03T12:10:50.462Z,94865.92
2019-05-03T12:13:10.732Z,94856.72
2019-05-03T12:15:40.070Z,94866.13
2019-05-03T12:18:10.554Z,94862.13
2019-05-03T12:20:41.270Z,94860.30
2019-05-03T12:23:11.496Z,94866.17
2019-05-03T12:25:42.393Z,94865.84
2019-05-03T12:28:15.181Z,94869.38
2019-05-03T12:30:44.855Z,94875.09
2019-05-03T12:33:15.435Z,94864.90
2019-05-03T12:35:46.262Z,94864.55
2019-05-03T12:38:16.508Z,94866.77
2019-05-03T12:40:45.892Z,94869.35
2019-05-03T12:43:15.185Z,94874.84
2019-05-03T12:45:44.493Z,94869.17
2019-05-03T12:48:15.523Z,94870.42
2019-05-03T12:50:46.286Z,94860.27
2019-05-03T12:53:16.097Z,94864.14
2019-05-03T12:55:45.269Z,94867.73
2019-05-03T12:58:15.084Z,94863.83
2019-05-03T13:01:01.859Z,94866.11
2019-05-03T13:03:56.733Z,94859.36
2019-05-03T13:06:25.962Z,94859.83
2019-05-03T13:08:55.188Z,94859.66
2019-05-03T13:11:25.126Z,94851.59
2019-05-03T13:13:55.677Z,94850.20
2019-05-03T13:16:25.157Z,94847.81
2019-05-03T13:18:55.349Z,94847.81
2019-05-03T13:21:25.250Z,94846.00
2019-05-03T13:23:54.920Z,94847.36
2019-05-03T13:26:25.395Z,94848.79
2019-05-03T13:28:55.364Z,94849.11
2019-05-03T13:31:25.129Z,94846.55
2019-05-03T13:33:54.944Z,94836.92
2019-05-03T13:36:25.322Z,94837.84
2019-05-03T13:39:09.902Z,94837.41
2019-05-03T13:41:25.915Z,94837.69
2019-05-03T13:43:55.422Z,94825.78
2019-05-03T13:46:24.749Z,94826.38
2019-05-03T13:48:55.440Z,94826.09
2019-05-03T13:51:25.376Z,94823.49
2019-05-03T13:53:55.163Z,94819.69
2019-05-03T13:56:24.742Z,94819.25
2019-05-03T13:58:55.116Z,94814.77
2019-05-03T14:01:25.240Z,94819.03
2019-05-03T14:03:54.663Z,94815.64
2019-05-03T14:06:24.702Z,94815.31
2019-05-03T14:08:54.814Z,94817.33
2019-05-03T14:11:25.397Z,94816.73
2019-05-03T14:13:55.194Z,94812.28
2019-05-03T14:16:24.892Z,94821.28
2019-05-03T14:18:57.587Z,94810.83
2019-05-03T14:21:34.561Z,94811.45
2019-05-03T14:24:10.191Z,94809.12
2019-05-03T14:26:40.407Z,94812.71
2019-05-03T14:29:09.668Z,94809.41
2019-05-03T14:31:38.864Z,94806.72
2019-05-03T14:34:08.160Z,94806.86
2019-05-03T14:36:37.388Z,94801.94
2019-05-03T14:39:09.895Z,94805.31
2019-05-03T14:41:39.872Z,94799.02
2019-05-03T14:44:09.050Z,94791.70
2019-05-03T14:46:38.656Z,94795.70
2019-05-03T14:49:07.830Z,94798.03
2019-05-03T14:51:37.182Z,94805.45
2019-05-03T14:54:07.538Z,94796.05
2019-05-03T14:56:45.359Z,94807.33
2019-05-03T14:59:48.225Z,94799.91
2019-05-03T15:02:43.601Z,94803.81
2019-05-03T15:05:07.542Z,94812.58
2019-05-03T15:07:36.728Z,94812.58
2019-05-03T15:10:06.294Z,94811.84
2019-05-03T15:12:36.096Z,94811.22
2019-05-03T15:15:05.996Z,94805.47
2019-05-03T15:17:35.578Z,94801.98
2019-05-03T15:20:05.304Z,94795.84
2019-05-03T15:22:34.775Z,94804.58
2019-05-03T15:25:05.046Z,94806.34
2019-05-03T15:27:35.410Z,94803.23
2019-05-03T15:30:04.955Z,94799.72
2019-05-03T15:32:35.354Z,94795.64
2019-05-03T15:35:04.981Z,94799.87
2019-05-03T15:37:35.791Z,94800.81
2019-05-03T15:40:06.201Z,94798.16
2019-05-03T15:42:36.381Z,94794.61
2019-05-03T15:45:28.064Z,94790.36
2019-05-03T15:48:28.147Z,94791.19
2019-05-03T15:50:57.333Z,94789.86
2019-05-03T15:53:26.572Z,94787.41
2019-05-03T15:55:55.751Z,94795.72
2019-05-03T15:58:25.284Z,94790.34
2019-05-03T16:00:55.355Z,94787.33
2019-05-03T16:03:25.373Z,94786.16
2019-05-03T16:05:55.609Z,94794.02
2019-05-03T16:08:25.222Z,94795.47
2019-05-03T16:10:55.106Z,94788.41
2019-05-03T16:13:25.293Z,94792.03
2019-05-03T16:15:55.484Z,94791.77
2019-05-03T16:18:24.809Z,94794.41
2019-05-03T16:20:54.630Z,94802.94
2019-05-03T16:23:25.086Z,94803.64
2019-05-03T16:25:54.601Z,94792.34
2019-05-03T16:28:36.603Z,94795.78
2019-05-03T16:31:11.598Z,94790.39
2019-05-03T16:33:40.785Z,94788.73
2019-05-03T16:36:09.960Z,94785.67
2019-05-03T16:38:39.482Z,94783.12
2019-05-03T16:41:08.671Z,94790.17
2019-05-03T16:43:38.548Z,94787.64
2019-05-03T16:46:07.740Z,94783.34
2019-05-03T16:48:36.995Z,94782.25
2019-05-03T16:51:06.186Z,94778.20
2019-05-03T16:53:35.439Z,94781.89
2019-05-03T16:56:04.950Z,94775.95
2019-05-03T16:58:35.364Z,94772.20
2019-05-03T17:01:04.693Z,94776.73
2019-05-03T17:03:47.747Z,94780.68
2019-05-03T17:06:28.178Z,94784.22
2019-05-03T17:09:26.307Z,94780.23
2019-05-03T17:12:15.004Z,94781.63
2019-05-03T17:14:43.939Z,94781.63
2019-05-03T17:17:14.827Z,94784.42
2019-05-03T17:19:44.873Z,94781.89
2019-05-03T17:22:14.875Z,94782.05
2019-05-03T17:24:45.345Z,94782.42
2019-05-03T17:27:14.552Z,94779.09
2019-05-03T17:29:44.507Z,94779.61
2019-05-03T17:32:15.332Z,94783.20
2019-05-03T17:34:45.380Z,94785.64
2019-05-03T17:37:14.898Z,94794.26
2019-05-03T17:40:09.167Z,94792.81
2019-05-03T17:42:55.895Z,94795.91
2019-05-03T17:45:30.527Z,94791.03
2019-05-03T17:47:59.706Z,94792.66
2019-05-03T17:50:28.920Z,94791.56
2019-05-03T17:53:12.427Z,94805.44
2019-05-03T17:55:59.190Z,94799.36
2019-05-03T17:58:45.772Z,94804.77
2019-05-03T18:01:40.109Z,94808.13
2019-05-03T18:04:25.213Z,94808.59
2019-05-03T18:07:14.935Z,94806.89
2019-05-03T18:09:44.874Z,94809.69
2019-05-03T18:12:15.074Z,94803.67
2019-05-03T18:14:45.046Z,94810.37
2019-05-03T18:17:14.782Z,94807.66
2019-05-03T18:19:44.840Z,94811.76
2019-05-03T18:22:15.298Z,94811.61
2019-05-03T18:24:45.565Z,94811.63
2019-05-03T18:27:15.097Z,94819.89
2019-05-03T18:29:44.994Z,94825.51
2019-05-03T18:32:14.694Z,94822.09
2019-05-03T18:34:45.367Z,94827.69
2019-05-03T18:37:15.340Z,94824.94
2019-05-03T18:39:45.353Z,94829.26
2019-05-03T18:42:20.157Z,94831.03
2019-05-03T18:44:52.301Z,94829.61
2019-05-03T18:47:25.157Z,94830.91
2019-05-03T18:49:55.243Z,94837.53
2019-05-03T18:52:24.430Z,94837.70
2019-05-03T18:54:55.164Z,94843.31
2019-05-03T18:57:25.603Z,94846.12
2019-05-03T18:59:55.702Z,94846.88
2019-05-03T19:02:25.569Z,94840.33
2019-05-03T19:04:56.127Z,94846.69
2019-05-03T19:07:50.047Z,94841.41
2019-05-03T19:10:47.411Z,94839.23
2019-05-03T19:13:23.928Z,94840.17
2019-05-03T19:15:55.059Z,94840.59
2019-05-03T19:18:35.897Z,94836.16
2019-05-03T19:21:05.152Z,94841.41
2019-05-03T19:23:35.474Z,94841.41
2019-05-03T19:26:05.564Z,94847.83
2019-05-03T19:28:37.165Z,94855.42
2019-05-03T19:31:06.682Z,94862.59
2019-05-03T19:33:37.318Z,94860.12
2019-05-03T19:36:06.982Z,94858.74
2019-05-03T19:38:36.535Z,94859.76
2019-05-03T19:41:05.716Z,94855.42
2019-05-03T19:43:35.557Z,94856.64
2019-05-03T19:46:07.157Z,94856.70
2019-05-03T19:48:35.903Z,94853.03
2019-05-03T19:51:05.859Z,94859.53
2019-05-03T19:53:47.693Z,94859.67
2019-05-03T19:56:17.669Z,94864.45
2019-05-03T19:58:46.911Z,94864.58
2019-05-03T20:01:35.118Z,94858.97
2019-05-03T20:04:24.563Z,94859.66
2019-05-03T20:06:59.845Z,94863.34
2019-05-03T20:09:29.743Z,94862.13
2019-05-03T20:11:59.256Z,94866.48
2019-05-03T20:14:28.810Z,94863.06
2019-05-03T20:16:58.269Z,94859.94
2019-05-03T20:19:27.532Z,94851.73
2019-05-03T20:21:56.864Z,94849.61
2019-05-03T20:24:26.057Z,94851.86
2019-05-03T20:26:55.521Z,94860.34
2019-05-03T20:29:25.128Z,94861.16
2019-05-03T20:31:55.179Z,94857.82
2019-05-03T20:34:24.979Z,94858.00
2019-05-03T20:36:54.867Z,94858.42
2019-05-03T20:39:25.450Z,94863.03
2019-05-03T20:41:55.136Z,94857.30
2019-05-03T20:44:35.244Z,94857.85
2019-05-03T20:47:18.366Z,94853.56
2019-05-03T20:50:06.507Z,94859.69
2019-05-03T20:52:35.786Z,94855.59
2019-05-03T20:55:05.373Z,94852.52
2019-05-03T20:57:35.334Z,94855.94
2019-05-03T21:00:05.097Z,94855.70
2019-05-03T21:02:34.688Z,94858.58
2019-05-03T21:05:04.377Z,94854.78
2019-05-03T21:07:35.165Z,94854.71
2019-05-03T21:10:06.064Z,94861.39
2019-05-03T21:12:35.382Z,94855.02
2019-05-03T21:15:06.851Z,94867.44
2019-05-03T21:17:52.597Z,94863.16
2019-05-03T21:20:39.301Z,94861.10
2019-05-03T21:23:09.735Z,94859.08
2019-05-03T21:26:05.534Z,94858.86
2019-05-03T21:28:16.044Z,94854.36
2019-05-03T21:30:45.425Z,94858.86
2019-05-03T21:33:15.766Z,94853.72
2019-05-03T21:35:45.338Z,94849.25
2019-05-03T21:38:14.552Z,94850.58
2019-05-03T21:40:45.302Z,94853.22
2019-05-03T21:43:15.235Z,94848.88
2019-05-03T21:45:49.659Z,94852.63
2019-05-03T21:48:25.411Z,94851.30
2019-05-03T21:50:54.698Z,94851.41
2019-05-03T21:53:25.130Z,94846.80
2019-05-03T21:55:54.718Z,94843.20
2019-05-03T21:58:24.999Z,94849.39
2019-05-03T22:01:00.018Z,94856.70
2019-05-03T22:03:29.490Z,94844.92
2019-05-03T22:05:58.749Z,94851.48
2019-05-03T22:08:27.958Z,94851.52
2019-05-03T22:10:57.154Z,94841.25
2019-05-03T22:13:26.421Z,94846.58
2019-05-03T22:16:01.315Z,94838.58
2019-05-03T22:18:31.510Z,94832.35
2019-05-03T22:21:22.870Z,94834.16
2019-05-03T22:24:05.191Z,94828.36
2019-05-03T22:26:51.357Z,94830.30
2019-05-03T22:29:20.898Z,94834.80
2019-05-03T22:31:50.209Z,94826.26
2019-05-03T22:34:19.477Z,94827.16
2019-05-03T22:36:48.970Z,94826.90
2019-05-03T22:39:18.203Z,94823.41
2019-05-03T22:41:47.427Z,94819.02
2019-05-03T22:44:17.184Z,94815.67
2019-05-03T22:46:46.441Z,94815.88
2019-05-03T22:49:16.385Z,94818.77
2019-05-03T22:51:45.882Z,94818.91
2019-05-03T22:54:15.513Z,94814.69
2019-05-03T22:56:45.005Z,94813.97
2019-05-03T22:59:14.847Z,94806.80
2019-05-03T23:01:45.757Z,94804.09
2019-05-03T23:04:15.268Z,94796.85
2019-05-03T23:06:47.089Z,94795.63
2019-05-03T23:09:16.044Z,94795.95
2019-05-03T23:11:45.352Z,94794.61
2019-05-03T23:14:15.267Z,94789.28
2019-05-03T23:16:45.138Z,94786.06
2019-05-03T23:19:14.881Z,94782.09
2019-05-03T23:21:55.987Z,94786.17
2019-05-03T23:24:25.184Z,94776.95
2019-05-03T23:26:54.465Z,94779.14
2019-05-03T23:29:24.009Z,94769.23
2019-05-03T23:31:53.269Z,94769.23
2019-05-03T23:34:24.764Z,94775.55
2019-05-03T23:36:54.803Z,94772.89
2019-05-03T23:39:24.940Z,94763.27
2019-05-03T23:41:55.775Z,94757.58
2019-05-03T23:44:25.048Z,94754.67
2019-05-03T23:47:05.221Z,94745.12
2019-05-03T23:49:35.270Z,94746.42
2019-05-03T23:52:26.707Z,94746.06
2019-05-03T23:54:57.060Z,94740.66
2019-05-03T23:57:26.257Z,94739.66
2019-05-03T23:59:56.890Z,94733.89
